Maersk Murotsu — 3FPA2 — position and weather

sailwx.info

Track history (hours):
 
Tides and Currents Weather Stations Pressure Air Temp Water Temp Dewpoint Dewpoint Depression Visibility Wind Speed Wind Dir Waves Ship Positions

Maersk Murotsu

Last reported at 2017-Sep-25 14:19 UTC. Time now 2017-Oct-23 02:47 UTC.
Position N 37°20' E 025°54'.
Warning: this ship's position is 27 days out of date.

Length 183 m; draft 10.5 m.

Type: Ship. MMSI: 355920000.

Date/timePositionNaut miles runAvg speedWind from/ knotsBaromVisibWave heightAir tempDewpointWater temp
2017-Sep-25 14:19N 37°20' E 025°54'412.7
2017-Sep-25 14:00N 37°23' E 025°51'612.4
2017-Sep-25 13:30N 37°28' E 025°46'612.6
2017-Sep-25 13:00N 37°34' E 025°43'713.5
2017-Sep-25 12:30N 37°40' E 025°41'815.3
2017-Sep-25 12:00N 37°48' E 025°38'  
2017-Sep-20 18:29N 40°02' E 026°15'5 9.0
2017-Sep-20 17:57N 40°01' E 026°09'3 6.3
2017-Sep-20 17:30N 39°60' E 026°06'4 7.3
2017-Sep-20 16:53N 39°58' E 026°00'512.9
2017-Sep-20 16:31N 39°53' E 025°57'4 6.0
2017-Sep-20 15:55N 39°51' E 025°54'0 0.0
2017-Sep-20 05:43N 39°50' E 025°54'0 0.1
2017-Sep-20 05:31N 39°50' E 025°54'0 0.0
2017-Sep-20 04:52N 39°50' E 025°54'0 0.0
2017-Sep-20 04:28N 39°50' E 025°54'0 0.0
2017-Sep-20 03:58N 39°50' E 025°54'0 0.1
2017-Sep-20 00:44N 39°50' E 025°54'2 6.7
2017-Sep-20 00:29N 39°49' E 025°52'1012.3
2017-Sep-19 23:38N 39°43' E 025°41'9014.4
2017-Sep-19 17:25N 38°22' E 024°51'614.8
2017-Sep-19 17:01N 38°17' E 024°48'3114.9
2017-Sep-19 14:54N 37°47' E 024°35'815.0
2017-Sep-19 14:24N 37°40' E 024°32'1415.5
2017-Sep-19 13:28N 37°29' E 024°20'714.7
2017-Sep-19 13:00N 37°24' E 024°14'714.3
2017-Sep-19 12:31N 37°20' E 024°07'714.7
2017-Sep-19 12:01N 37°14' E 024°01'714.9
2017-Sep-19 11:30N 37°09' E 023°54'714.8
2017-Sep-19 11:00N 37°04' E 023°47'714.9
2017-Sep-19 10:31N 36°59' E 023°41'714.9
2017-Sep-19 10:00N 36°53' E 023°34'714.4
2017-Sep-19 09:31N 36°47' E 023°30'815.0
2017-Sep-19 09:01N 36°40' E 023°28'915.0
2017-Sep-19 08:26N 36°31' E 023°26'614.5
2017-Sep-19 08:00N 36°26' E 023°23'815.5
2017-Sep-19 07:30N 36°19' E 023°18'915.3
2017-Sep-19 06:55N 36°11' E 023°13'715.3
2017-Sep-19 06:30N 36°05' E 023°10'31414.6
2017-Sep-18 08:55N 35°56' E 016°42'814.7
2017-Sep-18 08:23N 35°55' E 016°32'715.0
2017-Sep-18 07:55N 35°55' E 016°23'614.7
2017-Sep-18 07:29N 35°55' E 016°16'1914.8
2017-Sep-18 06:13N 35°56' E 015°52'414.6
2017-Sep-18 05:55N 35°56' E 015°47'714.5
2017-Sep-18 05:28N 35°55' E 015°39'714.4
2017-Sep-18 05:00N 35°56' E 015°31'1214.2
2017-Sep-18 04:11N 35°55' E 015°16'214.5
2017-Sep-18 04:01N 35°56' E 015°13'714.4
2017-Sep-18 03:30N 35°55' E 015°04'714.1
2017-Sep-18 02:59N 35°54' E 014°55'610.5
2017-Sep-18 02:23N 35°55' E 014°48'0 0.1
2017-Sep-18 01:59N 35°55' E 014°48'0 0.0
2017-Sep-18 01:29N 35°55' E 014°48'0 0.0
2017-Sep-18 00:55N 35°55' E 014°48'0 0.1
2017-Sep-18 00:29N 35°55' E 014°48'0 0.0
2017-Sep-17 23:53N 35°55' E 014°48'0 0.1
2017-Sep-17 23:28N 35°55' E 014°48'0 0.1
2017-Sep-17 22:58N 35°55' E 014°48'0 0.0
2017-Sep-17 22:28N 35°55' E 014°48'0 0.0
2017-Sep-17 21:58N 35°55' E 014°48'0 0.0
2017-Sep-17 21:29N 35°55' E 014°48'0 0.1
2017-Sep-17 20:59N 35°55' E 014°48'0 0.1
2017-Sep-17 20:29N 35°55' E 014°48'0 0.0
2017-Sep-17 19:58N 35°55' E 014°48'0 0.0
2017-Sep-17 19:25N 35°55' E 014°48'0 0.0
2017-Sep-17 18:59N 35°55' E 014°48'0 0.0
2017-Sep-17 18:29N 35°55' E 014°48'0 0.0
2017-Sep-17 17:56N 35°55' E 014°48'0 0.0
2017-Sep-17 17:26N 35°55' E 014°48'0 0.1
2017-Sep-17 16:59N 35°55' E 014°48'0 0.2
2017-Sep-17 16:29N 35°55' E 014°48'0 0.1
2017-Sep-17 15:59N 35°55' E 014°48'0 0.0
2017-Sep-17 15:29N 35°55' E 014°48'0 0.0
2017-Sep-17 14:56N 35°55' E 014°48'0 0.0
2017-Sep-17 14:29N 35°55' E 014°48'0 0.0
2017-Sep-17 13:59N 35°55' E 014°48'0 0.0
2017-Sep-17 13:29N 35°55' E 014°48'0 0.0
2017-Sep-17 12:59N 35°55' E 014°48'0 0.0
2017-Sep-17 12:28N 35°55' E 014°48'0 0.0
2017-Sep-17 12:00N 35°55' E 014°48'0 0.0
2017-Sep-17 11:30N 35°55' E 014°48'0 0.0
2017-Sep-17 11:00N 35°55' E 014°48'0 0.0
2017-Sep-17 10:30N 35°55' E 014°48'0 0.0
2017-Sep-17 10:00N 35°55' E 014°48'0 0.0
2017-Sep-17 09:30N 35°55' E 014°48'0 0.0
2017-Sep-17 09:00N 35°55' E 014°48'0 0.0
2017-Sep-17 08:30N 35°55' E 014°48'0 0.0
2017-Sep-17 08:00N 35°55' E 014°48'0 0.1
2017-Sep-17 07:30N 35°55' E 014°48'0 0.0
2017-Sep-17 07:00N 35°55' E 014°48'0 0.0
2017-Sep-17 06:30N 35°55' E 014°48'0 0.0
2017-Sep-17 06:00N 35°55' E 014°48'0 0.1
2017-Sep-17 05:30N 35°55' E 014°48'0 0.1
2017-Sep-17 05:00N 35°55' E 014°48'1 2.2
2017-Sep-17 04:30N 35°55' E 014°47'713.7
2017-Sep-17 04:00N 35°60' E 014°40'714.9
2017-Sep-17 03:30N 36°04' E 014°32'714.9
2017-Sep-17 03:00N 36°08' E 014°25'815.0
2017-Sep-17 02:30N 36°11' E 014°16'814.8
2017-Sep-17 02:00N 36°14' E 014°08'714.6
2017-Sep-17 01:30N 36°17' E 013°60'714.3
2017-Sep-17 01:00N 36°20' E 013°52'714.2
2017-Sep-17 00:30N 36°23' E 013°44'714.0
2017-Sep-17 00:00N 36°26' E 013°36'713.8
2017-Sep-16 23:30N 36°29' E 013°28'713.9
2017-Sep-16 23:00N 36°32' E 013°20'713.8
2017-Sep-16 22:30N 36°35' E 013°12'713.9
2017-Sep-16 22:00N 36°38' E 013°04'713.9
2017-Sep-16 21:30N 36°41' E 012°57'714.1
2017-Sep-16 21:00N 36°44' E 012°49'714.1
2017-Sep-16 20:30N 36°47' E 012°41'714.4
2017-Sep-16 20:00N 36°51' E 012°33'3 6.6
2017-Sep-16 19:30N 36°52' E 012°29'510.6
2017-Sep-16 19:00N 36°54' E 012°23'714.0
2017-Sep-16 18:30N 36°57' E 012°15'714.2
2017-Sep-16 18:00N 36°60' E 012°07'714.0
2017-Sep-16 17:30N 37°03' E 011°59'713.6
2017-Sep-16 17:00N 37°06' E 011°51'713.3
2017-Sep-16 16:30N 37°08' E 011°44'713.3
2017-Sep-16 16:00N 37°11' E 011°36'713.4
2017-Sep-16 15:30N 37°14' E 011°29'713.4
2017-Sep-16 15:00N 37°18' E 011°21'713.3
2017-Sep-16 14:30N 37°21' E 011°14'713.3
2017-Sep-16 13:59N 37°24' E 011°06'613.2
2017-Sep-16 13:30N 37°26' E 010°59'713.5
2017-Sep-16 13:00N 37°28' E 010°50'713.5
2017-Sep-16 12:30N 37°29' E 010°42'714.0
2017-Sep-16 12:00N 37°31' E 010°34'714.4
2017-Sep-16 11:30N 37°33' E 010°25'714.2
2017-Sep-16 11:00N 37°34' E 010°16'714.2
2017-Sep-16 10:30N 37°34' E 010°07'714.3
2017-Sep-16 10:00N 37°34' E 009°58'714.3
2017-Sep-16 09:30N 37°32' E 009°49'714.6
2017-Sep-16 09:00N 37°30' E 009°41'815.4
2017-Sep-16 08:30N 37°28' E 009°31'815.2
2017-Sep-16 08:00N 37°26' E 009°22'715.1
2017-Sep-16 07:30N 37°24' E 009°13'715.1
2017-Sep-16 07:00N 37°23' E 009°03'914.6
2017-Sep-16 06:23N 37°20' E 008°53'3913.9
2017-Sep-16 03:35N 37°19' E 008°03'113.5
2017-Sep-16 03:30N 37°19' E 008°02'2113.9
2017-Sep-16 02:00N 37°22' E 007°36'  
Track history (hours):
 
Tides and Currents Weather Stations Pressure Air Temp Water Temp Dewpoint Dewpoint Depression Visibility Wind Speed Wind Dir Waves Ship Positions

Maersk Murotsu

Last reported at 2017-Sep-25 14:19 UTC. Time now 2017-Oct-23 02:47 UTC.
Position N 37°20' E 025°54'.
Warning: this ship's position is 27 days out of date.

Length 183 m; draft 10.5 m.

Type: Ship. MMSI: 355920000.

Date/timePositionNaut miles runAvg speedWind from/ knotsBaromVisibWave heightAir tempDewpointWater temp
2017-Sep-25 14:19N 37°20' E 025°54'412.7
2017-Sep-25 14:00N 37°23' E 025°51'612.4
2017-Sep-25 13:30N 37°28' E 025°46'612.6
2017-Sep-25 13:00N 37°34' E 025°43'713.5
2017-Sep-25 12:30N 37°40' E 025°41'815.3
2017-Sep-25 12:00N 37°48' E 025°38'  
2017-Sep-20 18:29N 40°02' E 026°15'5 9.0
2017-Sep-20 17:57N 40°01' E 026°09'3 6.3
2017-Sep-20 17:30N 39°60' E 026°06'4 7.3
2017-Sep-20 16:53N 39°58' E 026°00'512.9
2017-Sep-20 16:31N 39°53' E 025°57'4 6.0
2017-Sep-20 15:55N 39°51' E 025°54'0 0.0
2017-Sep-20 05:43N 39°50' E 025°54'0 0.1
2017-Sep-20 05:31N 39°50' E 025°54'0 0.0
2017-Sep-20 04:52N 39°50' E 025°54'0 0.0
2017-Sep-20 04:28N 39°50' E 025°54'0 0.0
2017-Sep-20 03:58N 39°50' E 025°54'0 0.1
2017-Sep-20 00:44N 39°50' E 025°54'2 6.7
2017-Sep-20 00:29N 39°49' E 025°52'1012.3
2017-Sep-19 23:38N 39°43' E 025°41'9014.4
2017-Sep-19 17:25N 38°22' E 024°51'614.8
2017-Sep-19 17:01N 38°17' E 024°48'3114.9
2017-Sep-19 14:54N 37°47' E 024°35'815.0
2017-Sep-19 14:24N 37°40' E 024°32'1415.5
2017-Sep-19 13:28N 37°29' E 024°20'714.7
2017-Sep-19 13:00N 37°24' E 024°14'714.3
2017-Sep-19 12:31N 37°20' E 024°07'714.7
2017-Sep-19 12:01N 37°14' E 024°01'714.9
2017-Sep-19 11:30N 37°09' E 023°54'714.8
2017-Sep-19 11:00N 37°04' E 023°47'714.9
2017-Sep-19 10:31N 36°59' E 023°41'714.9
2017-Sep-19 10:00N 36°53' E 023°34'714.4
2017-Sep-19 09:31N 36°47' E 023°30'815.0
2017-Sep-19 09:01N 36°40' E 023°28'915.0
2017-Sep-19 08:26N 36°31' E 023°26'614.5
2017-Sep-19 08:00N 36°26' E 023°23'815.5
2017-Sep-19 07:30N 36°19' E 023°18'915.3
2017-Sep-19 06:55N 36°11' E 023°13'715.3
2017-Sep-19 06:30N 36°05' E 023°10'31414.6
2017-Sep-18 08:55N 35°56' E 016°42'814.7
2017-Sep-18 08:23N 35°55' E 016°32'715.0
2017-Sep-18 07:55N 35°55' E 016°23'614.7
2017-Sep-18 07:29N 35°55' E 016°16'1914.8
2017-Sep-18 06:13N 35°56' E 015°52'414.6
2017-Sep-18 05:55N 35°56' E 015°47'714.5
2017-Sep-18 05:28N 35°55' E 015°39'714.4
2017-Sep-18 05:00N 35°56' E 015°31'1214.2
2017-Sep-18 04:11N 35°55' E 015°16'214.5
2017-Sep-18 04:01N 35°56' E 015°13'714.4
2017-Sep-18 03:30N 35°55' E 015°04'714.1
2017-Sep-18 02:59N 35°54' E 014°55'610.5
2017-Sep-18 02:23N 35°55' E 014°48'0 0.1
2017-Sep-18 01:59N 35°55' E 014°48'0 0.0
2017-Sep-18 01:29N 35°55' E 014°48'0 0.0
2017-Sep-18 00:55N 35°55' E 014°48'0 0.1
2017-Sep-18 00:29N 35°55' E 014°48'0 0.0
2017-Sep-17 23:53N 35°55' E 014°48'0 0.1
2017-Sep-17 23:28N 35°55' E 014°48'0 0.1
2017-Sep-17 22:58N 35°55' E 014°48'0 0.0
2017-Sep-17 22:28N 35°55' E 014°48'0 0.0
2017-Sep-17 21:58N 35°55' E 014°48'0 0.0
2017-Sep-17 21:29N 35°55' E 014°48'0 0.1
2017-Sep-17 20:59N 35°55' E 014°48'0 0.1
2017-Sep-17 20:29N 35°55' E 014°48'0 0.0
2017-Sep-17 19:58N 35°55' E 014°48'0 0.0
2017-Sep-17 19:25N 35°55' E 014°48'0 0.0
2017-Sep-17 18:59N 35°55' E 014°48'0 0.0
2017-Sep-17 18:29N 35°55' E 014°48'0 0.0
2017-Sep-17 17:56N 35°55' E 014°48'0 0.0
2017-Sep-17 17:26N 35°55' E 014°48'0 0.1
2017-Sep-17 16:59N 35°55' E 014°48'0 0.2
2017-Sep-17 16:29N 35°55' E 014°48'0 0.1
2017-Sep-17 15:59N 35°55' E 014°48'0 0.0
2017-Sep-17 15:29N 35°55' E 014°48'0 0.0
2017-Sep-17 14:56N 35°55' E 014°48'0 0.0
2017-Sep-17 14:29N 35°55' E 014°48'0 0.0
2017-Sep-17 13:59N 35°55' E 014°48'0 0.0
2017-Sep-17 13:29N 35°55' E 014°48'0 0.0
2017-Sep-17 12:59N 35°55' E 014°48'0 0.0
2017-Sep-17 12:28N 35°55' E 014°48'0 0.0
2017-Sep-17 12:00N 35°55' E 014°48'0 0.0
2017-Sep-17 11:30N 35°55' E 014°48'0 0.0
2017-Sep-17 11:00N 35°55' E 014°48'0 0.0
2017-Sep-17 10:30N 35°55' E 014°48'0 0.0
2017-Sep-17 10:00N 35°55' E 014°48'0 0.0
2017-Sep-17 09:30N 35°55' E 014°48'0 0.0
2017-Sep-17 09:00N 35°55' E 014°48'0 0.0
2017-Sep-17 08:30N 35°55' E 014°48'0 0.0
2017-Sep-17 08:00N 35°55' E 014°48'0 0.1
2017-Sep-17 07:30N 35°55' E 014°48'0 0.0
2017-Sep-17 07:00N 35°55' E 014°48'0 0.0
2017-Sep-17 06:30N 35°55' E 014°48'0 0.0
2017-Sep-17 06:00N 35°55' E 014°48'0 0.1
2017-Sep-17 05:30N 35°55' E 014°48'0 0.1
2017-Sep-17 05:00N 35°55' E 014°48'1 2.2
2017-Sep-17 04:30N 35°55' E 014°47'713.7
2017-Sep-17 04:00N 35°60' E 014°40'714.9
2017-Sep-17 03:30N 36°04' E 014°32'714.9
2017-Sep-17 03:00N 36°08' E 014°25'815.0
2017-Sep-17 02:30N 36°11' E 014°16'814.8
2017-Sep-17 02:00N 36°14' E 014°08'714.6
2017-Sep-17 01:30N 36°17' E 013°60'714.3
2017-Sep-17 01:00N 36°20' E 013°52'714.2
2017-Sep-17 00:30N 36°23' E 013°44'714.0
2017-Sep-17 00:00N 36°26' E 013°36'713.8
2017-Sep-16 23:30N 36°29' E 013°28'713.9
2017-Sep-16 23:00N 36°32' E 013°20'713.8
2017-Sep-16 22:30N 36°35' E 013°12'713.9
2017-Sep-16 22:00N 36°38' E 013°04'713.9
2017-Sep-16 21:30N 36°41' E 012°57'714.1
2017-Sep-16 21:00N 36°44' E 012°49'714.1
2017-Sep-16 20:30N 36°47' E 012°41'714.4
2017-Sep-16 20:00N 36°51' E 012°33'3 6.6
2017-Sep-16 19:30N 36°52' E 012°29'510.6
2017-Sep-16 19:00N 36°54' E 012°23'714.0
2017-Sep-16 18:30N 36°57' E 012°15'714.2
2017-Sep-16 18:00N 36°60' E 012°07'714.0
2017-Sep-16 17:30N 37°03' E 011°59'713.6
2017-Sep-16 17:00N 37°06' E 011°51'713.3
2017-Sep-16 16:30N 37°08' E 011°44'713.3
2017-Sep-16 16:00N 37°11' E 011°36'713.4
2017-Sep-16 15:30N 37°14' E 011°29'713.4
2017-Sep-16 15:00N 37°18' E 011°21'713.3
2017-Sep-16 14:30N 37°21' E 011°14'713.3
2017-Sep-16 13:59N 37°24' E 011°06'613.2
2017-Sep-16 13:30N 37°26' E 010°59'713.5
2017-Sep-16 13:00N 37°28' E 010°50'713.5
2017-Sep-16 12:30N 37°29' E 010°42'714.0
2017-Sep-16 12:00N 37°31' E 010°34'714.4
2017-Sep-16 11:30N 37°33' E 010°25'714.2
2017-Sep-16 11:00N 37°34' E 010°16'714.2
2017-Sep-16 10:30N 37°34' E 010°07'714.3
2017-Sep-16 10:00N 37°34' E 009°58'714.3
2017-Sep-16 09:30N 37°32' E 009°49'714.6
2017-Sep-16 09:00N 37°30' E 009°41'815.4
2017-Sep-16 08:30N 37°28' E 009°31'815.2
2017-Sep-16 08:00N 37°26' E 009°22'715.1
2017-Sep-16 07:30N 37°24' E 009°13'715.1
2017-Sep-16 07:00N 37°23' E 009°03'914.6
2017-Sep-16 06:23N 37°20' E 008°53'3913.9
2017-Sep-16 03:35N 37°19' E 008°03'113.5
2017-Sep-16 03:30N 37°19' E 008°02'2113.9
2017-Sep-16 02:00N 37°22' E 007°36'  

Dump ship's entire track history